»·PEaware :: N5002T KBUR-KBUR

N5002T :: KBUR-KBUR

FLIGHT INFORMATION

Flight Status: Arrived
Operator: Privately registered:
United States
More flights under this callsign
Pilot: Hunter M. (19355)
Aircraft: CESSNA 172 SKYHAWK
(C172)
More flights by this aircraft type
Origin: KBUR Bob Hope-Burbank
United States
Destination: KBUR Bob Hope-Burbank
United States
More flights between these airports :: More routes between these airports
Route: +SILEX
File this flight plan on PilotEdge
Remarks: Practice RNAV GPS Z RWY 8 VTF
Altitude:
(Current/Filed)
4,000ft
Speed:
(Current/Filed)
115kts
Departed: 02-Nov-18 10:56 AM
Arrived: 02-Nov-18 11:30 AM
Distance/Time
Traveled:
0nm/0:33
Distance/Time
To Go:
Arrived

Flight Plot

Page will automatically refresh every two minutes.


Map Options




Map Legend


Flown Route
Filed Route
Departure Airport
Arrival Airport
Navaid (VOR, NDB)
Fix

Horizontal Profiles

Position Reports

Time Latitude Longitude Heading Altitude Ground
Speed
02-Nov-18 10:39 34.195753 -118.360057 180 781ft 0kts
02-Nov-18 10:40 34.195752 -118.360057 180 781ft 0kts
02-Nov-18 10:41 34.195752 -118.360057 180 781ft 0kts
02-Nov-18 10:42 34.195751 -118.360057 180 781ft 0kts
02-Nov-18 10:44 34.195750 -118.360057 180 781ft 0kts
02-Nov-18 10:45 34.195749 -118.360057 180 781ft 0kts
02-Nov-18 10:46 34.195749 -118.360057 180 781ft 0kts
02-Nov-18 10:47 34.195748 -118.360057 180 781ft 0kts
02-Nov-18 10:48 34.195747 -118.360057 180 781ft 0kts
02-Nov-18 10:49 34.195746 -118.360057 180 781ft 0kts
02-Nov-18 10:50 34.195746 -118.360057 180 781ft 0kts
02-Nov-18 10:51 34.195745 -118.360057 180 781ft 0kts
02-Nov-18 10:52 34.195856 -118.360272 351 781ft 6kts
02-Nov-18 10:53 34.196646 -118.361517 270 781ft 9kts
02-Nov-18 10:54 34.196676 -118.363522 271 781ft 4kts
02-Nov-18 10:55 34.196713 -118.367033 274 781ft 13kts
02-Nov-18 10:56 34.197143 -118.368964 345 781ft 0kts
02-Nov-18 10:57 34.197144 -118.368964 345 781ft 0kts
02-Nov-18 10:58 34.197856 -118.367132 94 781ft 40kts
02-Nov-18 10:59 34.195864 -118.340625 122 1275ft 90kts
02-Nov-18 11:00 34.179955 -118.317647 130 1978ft 89kts
02-Nov-18 11:01 34.164851 -118.292934 129 2649ft 95kts
02-Nov-18 11:02 34.148019 -118.267523 129 3349ft 97kts
02-Nov-18 11:03 34.130732 -118.242169 129 3985ft 101kts
02-Nov-18 11:04 34.117326 -118.255791 269 4017ft 99kts
02-Nov-18 11:05 34.115734 -118.289189 269 4002ft 97kts
02-Nov-18 11:06 34.114889 -118.321532 278 4005ft 95kts
02-Nov-18 11:07 34.118556 -118.353281 279 4003ft 95kts
02-Nov-18 11:08 34.121844 -118.385138 278 4001ft 95kts
02-Nov-18 11:09 34.124890 -118.416799 278 3993ft 91kts
02-Nov-18 11:10 34.127662 -118.446811 278 4000ft 89kts
02-Nov-18 11:11 34.130350 -118.476602 278 4001ft 89kts
02-Nov-18 11:12 34.132890 -118.505543 278 4005ft 89kts
02-Nov-18 11:13 34.135447 -118.535377 278 4005ft 89kts
02-Nov-18 11:14 34.137936 -118.565200 278 4007ft 89kts
02-Nov-18 11:15 34.140354 -118.595009 278 4009ft 89kts
02-Nov-18 11:16 34.142651 -118.624833 277 4016ft 89kts
02-Nov-18 11:17 34.144876 -118.654663 277 4011ft 89kts
02-Nov-18 11:18 34.147098 -118.684519 277 4013ft 89kts
02-Nov-18 11:19 34.149257 -118.714300 277 4015ft 89kts
02-Nov-18 11:20 34.159019 -118.733007 44 4050ft 94kts
02-Nov-18 11:21 34.182961 -118.706554 37 3952ft 116kts
02-Nov-18 11:22 34.199254 -118.679928 74 4017ft 100kts
02-Nov-18 11:23 34.202392 -118.646208 86 4042ft 102kts
02-Nov-18 11:24 34.202136 -118.611961 87 4071ft 102kts
02-Nov-18 11:25 34.201720 -118.577750 88 3859ft 103kts
02-Nov-18 11:26 34.201245 -118.543697 88 3384ft 101kts
02-Nov-18 11:27 34.200565 -118.510825 90 2953ft 89kts
02-Nov-18 11:28 34.200166 -118.481647 87 2563ft 79kts
02-Nov-18 11:29 34.198480 -118.455371 84 2159ft 76kts
02-Nov-18 11:30 34.198675 -118.429705 92 1749ft 76kts
02-Nov-18 11:31 34.198201 -118.405470 85 1397ft 67kts
02-Nov-18 11:32 34.197966 -118.383983 90 1063ft 58kts
02-Nov-18 11:33 34.197863 -118.366248 88 781ft 26kts
02-Nov-18 11:34 34.197251 -118.364535 180 781ft 0kts
02-Nov-18 11:35 34.196712 -118.364208 97 781ft 6kts
02-Nov-18 11:36 34.196697 -118.359536 92 781ft 16kts
02-Nov-18 11:37 34.195789 -118.359327 177 781ft 0kts
02-Nov-18 11:38 34.195789 -118.359327 177 781ft 0kts
02-Nov-18 11:39 34.195788 -118.359327 177 781ft 0kts
02-Nov-18 11:40 34.195788 -118.359327 177 781ft 0kts

Navigation Log

Ident Type
Flight plan parsing failed, navigation log unavailable